Time,TemperatureF,DewpointF,PressureIn,WindDirection,WindDirectionDegrees,WindSpeedMPH,WindSpeedGustMPH,Humidity,HourlyPrecipIn,Conditions,Clouds,dailyrainin,SoftwareType,DateUTC
2013-01-19 00:02:00,12.0,8.0,-100.00,SSW,213,2.0,4.0,83,-99.99,,,-99.99,,2013-01-19 00:02:00,
2013-01-19 00:12:00,12.0,8.0,-100.00,SSW,213,2.0,4.0,83,-99.99,,,-99.99,,2013-01-19 00:12:00,
2013-01-19 00:22:00,10.0,6.0,-100.00,South,177,1.0,4.0,83,-99.99,,,-99.99,,2013-01-19 00:22:00,
2013-01-19 00:32:00,11.0,7.0,-100.00,NNW,341,0.0,2.0,83,-99.99,,,-99.99,,2013-01-19 00:32:00,
2013-01-19 00:42:00,11.0,7.0,-100.00,NNW,341,0.0,2.0,83,-99.99,,,-99.99,,2013-01-19 00:42:00,
2013-01-19 00:52:00,11.0,6.0,-100.00,ENE,70,0.0,4.0,81,-99.99,,,-99.99,,2013-01-19 00:52:00,
2013-01-19 01:02:00,12.0,8.0,-100.00,West,268,0.0,1.0,82,-99.99,,,-99.99,,2013-01-19 01:02:00,
2013-01-19 01:12:00,12.0,8.0,-100.00,West,268,0.0,1.0,82,-99.99,,,-99.99,,2013-01-19 01:12:00,
2013-01-19 01:22:00,11.0,7.0,-100.00,SSW,208,0.0,3.0,82,-99.99,,,-99.99,,2013-01-19 01:22:00,
2013-01-19 01:32:00,10.0,6.0,-100.00,NE,54,3.0,5.0,83,-99.99,,,-99.99,,2013-01-19 01:32:00,
2013-01-19 01:42:00,10.0,6.0,-100.00,NE,54,3.0,5.0,83,-99.99,,,-99.99,,2013-01-19 01:42:00,
2013-01-19 01:52:00,10.0,6.0,-100.00,NNE,26,2.0,5.0,83,-99.99,,,-99.99,,2013-01-19 01:52:00,
2013-01-19 02:02:00,10.0,6.0,-100.00,NNE,31,2.0,9.0,84,-99.99,,,-99.99,,2013-01-19 02:02:00,
2013-01-19 02:12:00,10.0,6.0,-100.00,NNE,31,2.0,9.0,84,-99.99,,,-99.99,,2013-01-19 02:12:00,
2013-01-19 02:22:00,10.0,6.0,-100.00,NE,35,2.0,5.0,84,-99.99,,,-99.99,,2013-01-19 02:22:00,
2013-01-19 02:32:00,10.0,6.0,-100.00,NE,35,4.0,9.0,83,-99.99,,,-99.99,,2013-01-19 02:32:00,
2013-01-19 02:42:00,10.0,6.0,-100.00,NE,35,4.0,9.0,83,-99.99,,,-99.99,,2013-01-19 02:42:00,
2013-01-19 02:52:00,9.0,5.0,-100.00,ENE,64,2.0,5.0,83,-99.99,,,-99.99,,2013-01-19 02:52:00,
2013-01-19 03:02:00,9.0,5.0,-100.00,ENE,62,5.0,10.0,82,-99.99,,,-99.99,,2013-01-19 03:02:00,
2013-01-19 03:12:00,9.0,5.0,-100.00,ENE,62,5.0,10.0,82,-99.99,,,-99.99,,2013-01-19 03:12:00,
2013-01-19 03:22:00,10.0,6.0,-100.00,ENE,67,2.0,5.0,82,-99.99,,,-99.99,,2013-01-19 03:22:00,
2013-01-19 03:32:00,10.0,6.0,-100.00,NNE,33,1.0,5.0,82,-99.99,,,-99.99,,2013-01-19 03:32:00,
2013-01-19 03:42:00,10.0,6.0,-100.00,NNE,33,1.0,5.0,82,-99.99,,,-99.99,,2013-01-19 03:42:00,
2013-01-19 03:52:00,10.0,6.0,-100.00,NE,43,3.0,7.0,82,-99.99,,,-99.99,,2013-01-19 03:52:00,
2013-01-19 04:02:00,12.0,8.0,-100.00,NW,310,1.0,6.0,83,-99.99,,,-99.99,,2013-01-19 04:02:00,
2013-01-19 04:12:00,12.0,8.0,-100.00,NW,310,1.0,6.0,83,-99.99,,,-99.99,,2013-01-19 04:12:00,
2013-01-19 04:22:00,11.0,7.0,-100.00,NNE,32,4.0,6.0,82,-99.99,,,-99.99,,2013-01-19 04:22:00,
2013-01-19 04:32:00,11.0,7.0,-100.00,NE,37,3.0,5.0,82,-99.99,,,-99.99,,2013-01-19 04:32:00,
2013-01-19 04:42:00,11.0,7.0,-100.00,NE,37,3.0,5.0,82,-99.99,,,-99.99,,2013-01-19 04:42:00,
2013-01-19 04:52:00,12.0,7.0,-100.00,ENE,60,0.0,4.0,81,-99.99,,,-99.99,,2013-01-19 04:52:00,
2013-01-19 05:03:00,13.0,9.0,-100.00,NE,45,0.0,4.0,85,-99.99,,,-99.99,,2013-01-19 05:03:00,
2013-01-19 05:12:00,13.0,9.0,-100.00,NE,45,0.0,4.0,85,-99.99,,,-99.99,,2013-01-19 05:12:00,
2013-01-19 05:22:00,14.0,10.0,-100.00,NNW,339,0.0,4.0,82,-99.99,,,-99.99,,2013-01-19 05:22:00,
2013-01-19 05:32:00,14.0,8.0,-100.00,NNE,33,2.0,4.0,78,-99.99,,,-99.99,,2013-01-19 05:32:00,
2013-01-19 05:42:00,14.0,8.0,-100.00,NNE,33,2.0,4.0,78,-99.99,,,-99.99,,2013-01-19 05:42:00,
2013-01-19 05:52:00,13.0,8.0,-100.00,SSE,166,1.0,4.0,80,-99.99,,,-99.99,,2013-01-19 05:52:00,
2013-01-19 06:02:00,15.0,11.0,-100.00,SE,140,2.0,8.0,84,-99.99,,,-99.99,,2013-01-19 06:02:00,
2013-01-19 06:12:00,15.0,11.0,-100.00,SE,140,2.0,8.0,84,-99.99,,,-99.99,,2013-01-19 06:12:00,
2013-01-19 06:22:00,18.0,13.0,-100.00,South,170,3.0,9.0,81,-99.99,,,-99.99,,2013-01-19 06:22:00,
2013-01-19 06:32:00,17.0,13.0,-100.00,North,8,0.0,7.0,83,-99.99,,,-99.99,,2013-01-19 06:32:00,
2013-01-19 06:43:00,17.0,13.0,-100.00,North,8,0.0,7.0,83,-99.99,,,-99.99,,2013-01-19 06:43:00,
2013-01-19 06:52:00,20.0,14.0,-100.00,SW,233,3.0,12.0,78,-99.99,,,-99.99,,2013-01-19 06:52:00,
2013-01-19 07:02:00,20.0,14.0,-100.00,SW,229,3.0,10.0,78,-99.99,,,-99.99,,2013-01-19 07:02:00,
2013-01-19 07:22:00,17.0,12.0,-100.00,South,172,4.0,11.0,79,-99.99,,,-99.99,,2013-01-19 07:22:00,
2013-01-19 07:32:00,16.0,11.0,-100.00,NNW,329,1.0,5.0,79,-99.99,,,-99.99,,2013-01-19 07:32:00,
2013-01-19 07:42:00,16.0,11.0,-100.00,NNW,329,1.0,5.0,79,-99.99,,,-99.99,,2013-01-19 07:42:00,
2013-01-19 07:52:00,16.0,11.0,-100.00,ESE,119,4.0,9.0,81,-99.99,,,-99.99,,2013-01-19 07:52:00,
2013-01-19 08:02:00,22.0,16.0,-100.00,South,179,5.0,20.0,77,-99.99,,,-99.99,,2013-01-19 08:02:00,
2013-01-19 08:22:00,19.0,12.0,-100.00,SE,130,2.0,13.0,74,-99.99,,,-99.99,,2013-01-19 08:22:00,
2013-01-19 08:32:00,18.0,12.0,-100.00,ESE,118,2.0,8.0,78,-99.99,,,-99.99,,2013-01-19 08:32:00,
2013-01-19 08:42:00,18.0,12.0,-100.00,ESE,118,2.0,8.0,78,-99.99,,,-99.99,,2013-01-19 08:42:00,
2013-01-19 08:52:00,18.0,13.0,-100.00,ENE,73,0.0,12.0,79,-99.99,,,-99.99,,2013-01-19 08:52:00,
2013-01-19 09:02:00,22.0,15.0,-100.00,SE,134,6.0,15.0,75,-99.99,,,-99.99,,2013-01-19 09:02:00,
2013-01-19 09:32:00,24.0,15.0,-100.00,NNE,28,4.0,19.0,69,-99.99,,,-99.99,,2013-01-19 09:32:00,
2013-01-19 09:52:00,24.0,16.0,-100.00,ESE,104,6.0,19.0,72,-99.99,,,-99.99,,2013-01-19 09:52:00,
2013-01-19 10:02:00,25.0,16.0,-100.00,SSE,148,4.0,17.0,69,-99.99,,,-99.99,,2013-01-19 10:02:00,
2013-01-19 10:22:00,25.0,16.0,-100.00,SE,138,8.0,20.0,69,-99.99,,,-99.99,,2013-01-19 10:22:00,
2013-01-19 10:32:00,25.0,16.0,-100.00,SSE,156,6.0,14.0,67,-99.99,,,-99.99,,2013-01-19 10:32:00,
2013-01-19 10:52:00,25.0,17.0,-100.00,SE,146,5.0,20.0,70,-99.99,,,-99.99,,2013-01-19 10:52:00,
2013-01-19 11:02:00,25.0,17.0,-100.00,SE,141,4.0,19.0,72,-99.99,,,-99.99,,2013-01-19 11:02:00,
2013-01-19 12:52:00,25.0,16.0,-100.00,SSE,165,4.0,14.0,67,-99.99,,,-99.99,,2013-01-19 12:52:00,
2013-01-19 13:02:00,26.0,16.0,-100.00,SSE,157,5.0,18.0,66,-99.99,,,-99.99,,2013-01-19 13:02:00,
2013-01-19 13:22:00,25.0,16.0,-100.00,SE,132,9.0,18.0,68,-99.99,,,-99.99,,2013-01-19 13:22:00,
2013-01-19 13:33:00,26.0,17.0,-100.00,ESE,122,8.0,20.0,68,-99.99,,,-99.99,,2013-01-19 13:33:00,
2013-01-19 13:52:00,26.0,17.0,-100.00,SE,128,8.0,18.0,67,-99.99,,,-99.99,,2013-01-19 13:52:00,
2013-01-19 14:02:00,26.0,17.0,-100.00,ESE,114,8.0,23.0,67,-99.99,,,-99.99,,2013-01-19 14:02:00,
2013-01-19 14:12:00,26.0,17.0,-100.00,ESE,114,8.0,23.0,67,-99.99,,,-99.99,,2013-01-19 14:12:00,
2013-01-19 14:22:00,26.0,16.0,-100.00,SE,133,13.0,21.0,66,-99.99,,,-99.99,,2013-01-19 14:22:00,
2013-01-19 14:33:00,26.0,16.0,-100.00,ESE,121,7.0,27.0,66,-99.99,,,-99.99,,2013-01-19 14:33:00,
2013-01-19 14:42:00,26.0,16.0,-100.00,ESE,121,7.0,27.0,66,-99.99,,,-99.99,,2013-01-19 14:42:00,
2013-01-19 14:53:00,26.0,17.0,-100.00,SE,133,10.0,24.0,67,-99.99,,,-99.99,,2013-01-19 14:53:00,
2013-01-19 15:03:00,26.0,17.0,-100.00,SE,133,10.0,24.0,67,-99.99,,,-99.99,,2013-01-19 15:03:00,
2013-01-19 15:12:00,26.0,17.0,-100.00,SE,133,10.0,24.0,67,-99.99,,,-99.99,,2013-01-19 15:12:00,
2013-01-19 15:22:00,27.0,16.0,-100.00,ESE,122,6.0,21.0,63,-99.99,,,-99.99,,2013-01-19 15:22:00,
2013-01-19 15:33:00,27.0,16.0,-100.00,SE,134,8.0,21.0,64,-99.99,,,-99.99,,2013-01-19 15:33:00,
2013-01-19 15:43:00,27.0,16.0,-100.00,SE,134,8.0,21.0,64,-99.99,,,-99.99,,2013-01-19 15:43:00,
2013-01-19 15:53:00,26.0,16.0,-100.00,SSE,150,10.0,21.0,66,-99.99,,,-99.99,,2013-01-19 15:53:00,
2013-01-19 16:02:00,27.0,16.0,-100.00,SE,124,9.0,21.0,64,-99.99,,,-99.99,,2013-01-19 16:02:00,
2013-01-19 16:12:00,27.0,16.0,-100.00,SE,124,9.0,21.0,64,-99.99,,,-99.99,,2013-01-19 16:12:00,
2013-01-19 16:22:00,26.0,17.0,-100.00,ESE,106,7.0,20.0,67,-99.99,,,-99.99,,2013-01-19 16:22:00,
2013-01-19 16:32:00,26.0,17.0,-100.00,ESE,102,10.0,23.0,67,-99.99,,,-99.99,,2013-01-19 16:32:00,
2013-01-19 16:43:00,26.0,17.0,-100.00,ESE,102,10.0,23.0,67,-99.99,,,-99.99,,2013-01-19 16:43:00,
2013-01-19 16:53:00,26.0,17.0,-100.00,ESE,120,10.0,20.0,67,-99.99,,,-99.99,,2013-01-19 16:53:00,
2013-01-19 17:02:00,26.0,17.0,-100.00,ESE,120,10.0,20.0,67,-99.99,,,-99.99,,2013-01-19 17:02:00,
2013-01-19 17:14:00,26.0,17.0,-100.00,ESE,120,10.0,20.0,67,-99.99,,,-99.99,,2013-01-19 17:14:00,
2013-01-19 17:26:00,26.0,16.0,-100.00,ESE,117,8.0,17.0,66,-99.99,,,-99.99,,2013-01-19 17:26:00,
2013-01-19 17:34:00,26.0,17.0,-100.00,SE,133,8.0,18.0,67,-99.99,,,-99.99,,2013-01-19 17:34:00,
2013-01-19 17:45:00,26.0,17.0,-100.00,SE,133,8.0,18.0,67,-99.99,,,-99.99,,2013-01-19 17:45:00,
2013-01-19 17:53:00,26.0,17.0,-100.00,SE,133,8.0,18.0,67,-99.99,,,-99.99,,2013-01-19 17:53:00,
2013-01-19 18:05:00,26.0,19.0,-100.00,ESE,120,8.0,18.0,73,-99.99,,,-99.99,,2013-01-19 18:05:00,
2013-01-19 18:13:00,26.0,19.0,-100.00,ESE,120,8.0,18.0,73,-99.99,,,-99.99,,2013-01-19 18:13:00,
2013-01-19 18:25:00,26.0,19.0,-100.00,East,99,10.0,18.0,74,-99.99,,,-99.99,,2013-01-19 18:25:00,
2013-01-19 18:34:00,26.0,18.0,-100.00,ESE,122,8.0,18.0,72,-99.99,,,-99.99,,2013-01-19 18:34:00,
2013-01-19 18:44:00,26.0,18.0,-100.00,ESE,122,8.0,18.0,72,-99.99,,,-99.99,,2013-01-19 18:44:00,
2013-01-19 19:05:00,26.0,17.0,-100.00,ESE,112,6.0,20.0,69,-99.99,,,-99.99,,2013-01-19 19:05:00,
2013-01-19 19:16:00,26.0,17.0,-100.00,ESE,112,6.0,20.0,69,-99.99,,,-99.99,,2013-01-19 19:16:00,
2013-01-19 19:25:00,27.0,18.0,-100.00,SE,131,7.0,24.0,69,-99.99,,,-99.99,,2013-01-19 19:25:00,
2013-01-19 19:36:00,27.0,19.0,-100.00,ESE,114,8.0,26.0,70,-99.99,,,-99.99,,2013-01-19 19:36:00,
2013-01-19 19:44:00,27.0,19.0,-100.00,ESE,114,8.0,26.0,70,-99.99,,,-99.99,,2013-01-19 19:44:00,
2013-01-19 19:54:00,27.0,18.0,-100.00,SE,135,7.0,17.0,69,-99.99,,,-99.99,,2013-01-19 19:54:00,
2013-01-19 20:07:00,27.0,17.0,-100.00,SSE,153,5.0,16.0,65,-99.99,,,-99.99,,2013-01-19 20:07:00,
2013-01-19 20:15:00,27.0,17.0,-100.00,SSE,153,5.0,16.0,65,-99.99,,,-99.99,,2013-01-19 20:15:00,
2013-01-19 20:23:00,28.0,17.0,-100.00,SE,124,13.0,25.0,64,-99.99,,,-99.99,,2013-01-19 20:23:00,
2013-01-19 20:35:00,28.0,17.0,-100.00,SE,124,13.0,25.0,64,-99.99,,,-99.99,,2013-01-19 20:35:00,
2013-01-19 20:44:00,28.0,17.0,-100.00,SE,124,13.0,25.0,64,-99.99,,,-99.99,,2013-01-19 20:44:00,
2013-01-19 20:53:00,28.0,17.0,-100.00,East,83,7.0,12.0,64,-99.99,,,-99.99,,2013-01-19 20:53:00,
2013-01-19 21:04:00,28.0,17.0,-100.00,SE,139,4.0,18.0,62,-99.99,,,-99.99,,2013-01-19 21:04:00,
2013-01-19 21:13:00,28.0,17.0,-100.00,SE,139,4.0,18.0,62,-99.99,,,-99.99,,2013-01-19 21:13:00,
2013-01-19 21:23:00,29.0,16.0,-100.00,South,177,4.0,17.0,58,-99.99,,,-99.99,,2013-01-19 21:23:00,
2013-01-19 21:37:00,29.0,17.0,-100.00,SE,127,6.0,13.0,60,-99.99,,,-99.99,,2013-01-19 21:37:00,
2013-01-19 21:47:00,29.0,17.0,-100.00,SE,127,6.0,13.0,60,-99.99,,,-99.99,,2013-01-19 21:47:00,
2013-01-19 21:53:00,27.0,18.0,-100.00,SE,137,4.0,9.0,67,-99.99,,,-99.99,,2013-01-19 21:53:00,
2013-01-19 22:15:00,28.0,18.0,-100.00,ENE,64,0.0,6.0,65,-99.99,,,-99.99,,2013-01-19 22:15:00,
2013-01-19 22:34:00,27.0,18.0,-100.00,SE,135,3.0,7.0,68,-99.99,,,-99.99,,2013-01-19 22:34:00,
2013-01-19 22:48:00,27.0,18.0,-100.00,SE,135,3.0,7.0,68,-99.99,,,-99.99,,2013-01-19 22:48:00,
2013-01-19 22:57:00,27.0,18.0,-100.00,SE,126,2.0,12.0,68,-99.99,,,-99.99,,2013-01-19 22:57:00,
2013-01-19 23:13:00,26.0,18.0,-100.00,SE,131,0.0,6.0,70,-99.99,,,-99.99,,2013-01-19 23:13:00,
2013-01-19 23:24:00,28.0,18.0,-100.00,South,189,1.0,11.0,65,-99.99,,,-99.99,,2013-01-19 23:24:00,
2013-01-19 23:33:00,28.0,18.0,-100.00,South,189,1.0,11.0,65,-99.99,,,-99.99,,2013-01-19 23:33:00,
2013-01-19 23:44:00,28.0,18.0,-100.00,South,189,1.0,11.0,65,-99.99,,,-99.99,,2013-01-19 23:44:00,